Terminal Aerodrome Forecast
Issued by NWS Wilmington, OH

Current Version | Previous Version | Text Only | Print | Product List | Glossary Off
Versions: 1 2 3 4 5 6 7 8 9 10 11 12 13 14 15 16 17 18 19 20 21 22 23

000
FTUS41 KILN 011100
TAFILN
TAF
KILN 011127Z 0112/0212 20005KT 5SM BR VCSH OVC008
     FM011300 21008KT P6SM SCT008 OVC015
     FM011600 21011KT P6SM BKN025
     FM011800 21014G22KT P6SM SCT030
     FM020600 21007KT P6SM VCSH BKN040
     FM021000 22007KT P6SM VCTS BKN040CB=

USA.gov is the U.S. government's official web portal to all federal, state and local government web resources and services.